sensor_id;sensor_type;location;lat;lon;timestamp;pressure;altitude;pressure_sealevel;temperature
61595;BMP280;47397;48.194;11.632;2023-02-11T00:00:06;97859.06;;;-2.66
61595;BMP280;47397;48.194;11.632;2023-02-11T00:01:08;97868.00;;;-2.70
61595;BMP280;47397;48.194;11.632;2023-02-11T00:02:09;97859.84;;;-2.67
61595;BMP280;47397;48.194;11.632;2023-02-11T00:03:09;97861.72;;;-2.63
61595;BMP280;47397;48.194;11.632;2023-02-11T00:04:10;97858.22;;;-2.67
61595;BMP280;47397;48.194;11.632;2023-02-11T00:05:10;97861.03;;;-2.75
61595;BMP280;47397;48.194;11.632;2023-02-11T00:06:10;97864.81;;;-2.67
61595;BMP280;47397;48.194;11.632;2023-02-11T00:07:11;97866.00;;;-2.75
61595;BMP280;47397;48.194;11.632;2023-02-11T00:08:11;97864.19;;;-2.78
61595;BMP280;47397;48.194;11.632;2023-02-11T00:09:12;97868.03;;;-2.83
61595;BMP280;47397;48.194;11.632;2023-02-11T00:10:12;97869.25;;;-2.76
61595;BMP280;47397;48.194;11.632;2023-02-11T00:11:14;97867.72;;;-2.74
61595;BMP280;47397;48.194;11.632;2023-02-11T00:12:16;97864.06;;;-2.94
61595;BMP280;47397;48.194;11.632;2023-02-11T00:13:16;97868.91;;;-2.83
61595;BMP280;47397;48.194;11.632;2023-02-11T00:14:17;97864.78;;;-2.82
61595;BMP280;47397;48.194;11.632;2023-02-11T00:15:17;97859.22;;;-2.78
61595;BMP280;47397;48.194;11.632;2023-02-11T00:16:19;97863.34;;;-2.78
61595;BMP280;47397;48.194;11.632;2023-02-11T00:17:20;97859.81;;;-2.82
61595;BMP280;47397;48.194;11.632;2023-02-11T00:18:20;97865.72;;;-2.80
61595;BMP280;47397;48.194;11.632;2023-02-11T00:19:21;97868.53;;;-2.89
61595;BMP280;47397;48.194;11.632;2023-02-11T00:20:21;97863.84;;;-2.84
61595;BMP280;47397;48.194;11.632;2023-02-11T00:21:23;97868.03;;;-2.83
61595;BMP280;47397;48.194;11.632;2023-02-11T00:22:24;97876.09;;;-2.87
61595;BMP280;47397;48.194;11.632;2023-02-11T00:23:24;97865.22;;;-3.02
61595;BMP280;47397;48.194;11.632;2023-02-11T00:24:25;97864.16;;;-3.06
61595;BMP280;47397;48.194;11.632;2023-02-11T00:25:25;97863.03;;;-3.11
61595;BMP280;47397;48.194;11.632;2023-02-11T00:26:28;97868.28;;;-3.06
61595;BMP280;47397;48.194;11.632;2023-02-11T00:27:30;97863.59;;;-3.02
61595;BMP280;47397;48.194;11.632;2023-02-11T00:28:30;97860.06;;;-3.05
61595;BMP280;47397;48.194;11.632;2023-02-11T00:29:31;97856.97;;;-3.01
61595;BMP280;47397;48.194;11.632;2023-02-11T00:30:31;97861.94;;;-3.01
61595;BMP280;47397;48.194;11.632;2023-02-11T00:31:32;97851.63;;;-2.94
61595;BMP280;47397;48.194;11.632;2023-02-11T00:32:33;97856.22;;;-3.00
61595;BMP280;47397;48.194;11.632;2023-02-11T00:33:33;97857.09;;;-3.13
61595;BMP280;47397;48.194;11.632;2023-02-11T00:34:34;97852.81;;;-3.16
61595;BMP280;47397;48.194;11.632;2023-02-11T00:35:35;97857.41;;;-3.22
61595;BMP280;47397;48.194;11.632;2023-02-11T00:36:36;97854.72;;;-3.11
61595;BMP280;47397;48.194;11.632;2023-02-11T00:37:36;97850.69;;;-3.09
61595;BMP280;47397;48.194;11.632;2023-02-11T00:38:37;97857.75;;;-3.02
61595;BMP280;47397;48.194;11.632;2023-02-11T00:39:37;97854.78;;;-2.97
61595;BMP280;47397;48.194;11.632;2023-02-11T00:40:37;97852.78;;;-3.02
61595;BMP280;47397;48.194;11.632;2023-02-11T00:41:38;97855.84;;;-3.06
61595;BMP280;47397;48.194;11.632;2023-02-11T00:42:40;97849.34;;;-3.04
61595;BMP280;47397;48.194;11.632;2023-02-11T00:43:40;97846.56;;;-3.09
61595;BMP280;47397;48.194;11.632;2023-02-11T00:44:41;97848.38;;;-3.06
61595;BMP280;47397;48.194;11.632;2023-02-11T00:45:41;97850.00;;;-3.07
61595;BMP280;47397;48.194;11.632;2023-02-11T00:46:42;97850.31;;;-3.16
61595;BMP280;47397;48.194;11.632;2023-02-11T00:47:42;97847.94;;;-3.14
61595;BMP280;47397;48.194;11.632;2023-02-11T00:48:43;97839.06;;;-3.24
61595;BMP280;47397;48.194;11.632;2023-02-11T00:49:43;97833.41;;;-3.21
61595;BMP280;47397;48.194;11.632;2023-02-11T00:50:44;97842.88;;;-3.16
61595;BMP280;47397;48.194;11.632;2023-02-11T00:51:44;97837.44;;;-3.23
61595;BMP280;47397;48.194;11.632;2023-02-11T00:52:45;97847.38;;;-3.23
61595;BMP280;47397;48.194;11.632;2023-02-11T00:53:45;97836.78;;;-3.34
61595;BMP280;47397;48.194;11.632;2023-02-11T00:54:45;97834.94;;;-3.23
61595;BMP280;47397;48.194;11.632;2023-02-11T00:55:46;97829.47;;;-3.18
61595;BMP280;47397;48.194;11.632;2023-02-11T00:56:46;97840.97;;;-3.20
61595;BMP280;47397;48.194;11.632;2023-02-11T00:57:48;97837.44;;;-3.23
61595;BMP280;47397;48.194;11.632;2023-02-11T00:58:49;97836.56;;;-3.24
61595;BMP280;47397;48.194;11.632;2023-02-11T00:59:49;97833.31;;;-3.23
61595;BMP280;47397;48.194;11.632;2023-02-11T01:00:50;97828.75;;;-3.30
61595;BMP280;47397;48.194;11.632;2023-02-11T01:01:50;97833.31;;;-3.23
61595;BMP280;47397;48.194;11.632;2023-02-11T01:02:51;97836.00;;;-3.20
61595;BMP280;47397;48.194;11.632;2023-02-11T01:03:51;97828.44;;;-3.21
61595;BMP280;47397;48.194;11.632;2023-02-11T01:04:52;97832.28;;;-3.26
61595;BMP280;47397;48.194;11.632;2023-02-11T01:05:52;97841.84;;;-3.32
61595;BMP280;47397;48.194;11.632;2023-02-11T01:06:53;97833.13;;;-3.26
61595;BMP280;47397;48.194;11.632;2023-02-11T01:07:53;97825.09;;;-3.22
61595;BMP280;47397;48.194;11.632;2023-02-11T01:08:54;97831.59;;;-3.24
61595;BMP280;47397;48.194;11.632;2023-02-11T01:09:54;97831.00;;;-3.20
61595;BMP280;47397;48.194;11.632;2023-02-11T01:10:57;97832.78;;;-3.32
61595;BMP280;47397;48.194;11.632;2023-02-11T01:11:57;97824.81;;;-3.26
61595;BMP280;47397;48.194;11.632;2023-02-11T01:12:59;97825.50;;;-3.29
61595;BMP280;47397;48.194;11.632;2023-02-11T01:14:00;97827.13;;;-3.29
61595;BMP280;47397;48.194;11.632;2023-02-11T01:15:00;97827.97;;;-3.29
61595;BMP280;47397;48.194;11.632;2023-02-11T01:16:02;97828.34;;;-3.23
61595;BMP280;47397;48.194;11.632;2023-02-11T01:17:04;97830.06;;;-3.22
61595;BMP280;47397;48.194;11.632;2023-02-11T01:18:05;97836.22;;;-3.30
61595;BMP280;47397;48.194;11.632;2023-02-11T01:19:05;97836.88;;;-3.32
61595;BMP280;47397;48.194;11.632;2023-02-11T01:20:10;97834.75;;;-3.39
61595;BMP280;47397;48.194;11.632;2023-02-11T01:21:11;97832.78;;;-3.32
61595;BMP280;47397;48.194;11.632;2023-02-11T01:22:11;97833.63;;;-3.31
61595;BMP280;47397;48.194;11.632;2023-02-11T01:23:11;97831.91;;;-3.32
61595;BMP280;47397;48.194;11.632;2023-02-11T01:24:12;97833.63;;;-3.44
61595;BMP280;47397;48.194;11.632;2023-02-11T01:25:12;97830.97;;;-3.34
61595;BMP280;47397;48.194;11.632;2023-02-11T01:26:13;97823.78;;;-3.43
61595;BMP280;47397;48.194;11.632;2023-02-11T01:27:13;97826.25;;;-3.43
61595;BMP280;47397;48.194;11.632;2023-02-11T01:28:17;97822.06;;;-3.44
61595;BMP280;47397;48.194;11.632;2023-02-11T01:29:18;97825.41;;;-3.43
61595;BMP280;47397;48.194;11.632;2023-02-11T01:30:18;97830.66;;;-3.39
61595;BMP280;47397;48.194;11.632;2023-02-11T01:31:19;97832.00;;;-3.44
61595;BMP280;47397;48.194;11.632;2023-02-11T01:32:19;97825.22;;;-3.33
61595;BMP280;47397;48.194;11.632;2023-02-11T01:33:20;97826.94;;;-3.46
61595;BMP280;47397;48.194;11.632;2023-02-11T01:34:20;97826.06;;;-3.46
61595;BMP280;47397;48.194;11.632;2023-02-11T01:35:21;97828.66;;;-3.44
61595;BMP280;47397;48.194;11.632;2023-02-11T01:36:21;97831.31;;;-3.41
61595;BMP280;47397;48.194;11.632;2023-02-11T01:37:22;97828.56;;;-3.33
61595;BMP280;47397;48.194;11.632;2023-02-11T01:38:24;97830.47;;;-3.42
61595;BMP280;47397;48.194;11.632;2023-02-11T01:39:25;97829.59;;;-3.42
61595;BMP280;47397;48.194;11.632;2023-02-11T01:40:25;97826.34;;;-3.41
61595;BMP280;47397;48.194;11.632;2023-02-11T01:41:26;97825.78;;;-3.37
61595;BMP280;47397;48.194;11.632;2023-02-11T01:42:26;97833.03;;;-3.40
61595;BMP280;47397;48.194;11.632;2023-02-11T01:43:30;97826.16;;;-3.44
61595;BMP280;47397;48.194;11.632;2023-02-11T01:44:33;97830.06;;;-3.35
61595;BMP280;47397;48.194;11.632;2023-02-11T01:45:52;97833.22;;;-3.37
61595;BMP280;47397;48.194;11.632;2023-02-11T01:46:54;97831.81;;;-3.34
61595;BMP280;47397;48.194;11.632;2023-02-11T01:47:55;97832.94;;;-3.42
61595;BMP280;47397;48.194;11.632;2023-02-11T01:48:59;97821.09;;;-3.46
61595;BMP280;47397;48.194;11.632;2023-02-11T01:50:01;97835.44;;;-3.42
61595;BMP280;47397;48.194;11.632;2023-02-11T01:51:05;97832.38;;;-3.38
61595;BMP280;47397;48.194;11.632;2023-02-11T01:52:08;97834.31;;;-3.47
61595;BMP280;47397;48.194;11.632;2023-02-11T01:53:10;97836.31;;;-3.41
61595;BMP280;47397;48.194;11.632;2023-02-11T01:54:12;97833.13;;;-3.39
61595;BMP280;47397;48.194;11.632;2023-02-11T01:55:14;97834.13;;;-3.50
61595;BMP280;47397;48.194;11.632;2023-02-11T01:56:16;97831.84;;;-3.60
61595;BMP280;47397;48.194;11.632;2023-02-11T01:57:20;97828.13;;;-3.67
61595;BMP280;47397;48.194;11.632;2023-02-11T01:58:21;97830.50;;;-3.68
61595;BMP280;47397;48.194;11.632;2023-02-11T01:59:26;97832.31;;;-3.66
61595;BMP280;47397;48.194;11.632;2023-02-11T02:00:30;97827.16;;;-3.69
61595;BMP280;47397;48.194;11.632;2023-02-11T02:01:33;97833.53;;;-3.72
61595;BMP280;47397;48.194;11.632;2023-02-11T02:02:39;97836.63;;;-3.63
61595;BMP280;47397;48.194;11.632;2023-02-11T02:03:43;97834.69;;;-3.54
61595;BMP280;47397;48.194;11.632;2023-02-11T02:04:51;97838.94;;;-3.66
61595;BMP280;47397;48.194;11.632;2023-02-11T02:05:56;97837.78;;;-3.71
61595;BMP280;47397;48.194;11.632;2023-02-11T02:07:01;97832.88;;;-3.83
61595;BMP280;47397;48.194;11.632;2023-02-11T02:08:07;97823.53;;;-3.87
61595;BMP280;47397;48.194;11.632;2023-02-11T02:09:11;97823.44;;;-3.89
61595;BMP280;47397;48.194;11.632;2023-02-11T02:10:18;97824.38;;;-3.73
61595;BMP280;47397;48.194;11.632;2023-02-11T02:11:20;97827.06;;;-3.84
61595;BMP280;47397;48.194;11.632;2023-02-11T02:12:20;97818.34;;;-3.77
61595;BMP280;47397;48.194;11.632;2023-02-11T02:13:21;97822.19;;;-3.69
61595;BMP280;47397;48.194;11.632;2023-02-11T02:14:23;97821.72;;;-3.63
61595;BMP280;47397;48.194;11.632;2023-02-11T02:15:26;97823.53;;;-3.61
61595;BMP280;47397;48.194;11.632;2023-02-11T02:16:30;97818.09;;;-3.68
61595;BMP280;47397;48.194;11.632;2023-02-11T02:17:37;97809.47;;;-3.73
61595;BMP280;47397;48.194;11.632;2023-02-11T02:18:47;97815.09;;;-3.76
61595;BMP280;47397;48.194;11.632;2023-02-11T02:20:15;97814.06;;;-3.80
61595;BMP280;47397;48.194;11.632;2023-02-11T02:21:56;97811.41;;;-3.69
61595;BMP280;47397;48.194;11.632;2023-02-11T02:23:12;97808.81;;;-3.84
61595;BMP280;47397;48.194;11.632;2023-02-11T02:24:44;97807.00;;;-3.87
61595;BMP280;47397;48.194;11.632;2023-02-11T02:27:36;97797.25;;;-3.97
61595;BMP280;47397;48.194;11.632;2023-02-11T02:28:45;97784.03;;;-4.09
61595;BMP280;47397;48.194;11.632;2023-02-11T02:30:19;97793.16;;;-3.96
61595;BMP280;47397;48.194;11.632;2023-02-11T02:31:39;97788.28;;;-3.95
61595;BMP280;47397;48.194;11.632;2023-02-11T02:32:57;97782.91;;;-3.88
61595;BMP280;47397;48.194;11.632;2023-02-11T02:34:05;97779.47;;;-3.90
61595;BMP280;47397;48.194;11.632;2023-02-11T02:35:13;97776.03;;;-3.92
61595;BMP280;47397;48.194;11.632;2023-02-11T02:36:19;97781.78;;;-3.93
61595;BMP280;47397;48.194;11.632;2023-02-11T02:37:28;97780.06;;;-3.94
61595;BMP280;47397;48.194;11.632;2023-02-11T02:38:33;97771.25;;;-3.89
61595;BMP280;47397;48.194;11.632;2023-02-11T02:39:35;97770.59;;;-3.86
61595;BMP280;47397;48.194;11.632;2023-02-11T02:40:41;97771.47;;;-3.99
61595;BMP280;47397;48.194;11.632;2023-02-11T02:41:42;97781.09;;;-3.90
61595;BMP280;47397;48.194;11.632;2023-02-11T02:42:45;97773.84;;;-3.87
61595;BMP280;47397;48.194;11.632;2023-02-11T02:43:48;97771.16;;;-3.90
61595;BMP280;47397;48.194;11.632;2023-02-11T02:44:49;97769.94;;;-3.97
61595;BMP280;47397;48.194;11.632;2023-02-11T02:45:49;97779.75;;;-3.85
61595;BMP280;47397;48.194;11.632;2023-02-11T02:46:50;97780.13;;;-3.79
61595;BMP280;47397;48.194;11.632;2023-02-11T02:47:50;97781.38;;;-3.86
61595;BMP280;47397;48.194;11.632;2023-02-11T02:48:53;97779.66;;;-3.87
61595;BMP280;47397;48.194;11.632;2023-02-11T02:49:54;97780.06;;;-3.94
61595;BMP280;47397;48.194;11.632;2023-02-11T02:51:02;97769.81;;;-3.85
61595;BMP280;47397;48.194;11.632;2023-02-11T02:52:16;97764.38;;;-3.80
61595;BMP280;47397;48.194;11.632;2023-02-11T02:53:27;97765.81;;;-3.96
61595;BMP280;47397;48.194;11.632;2023-02-11T02:56:17;97756.53;;;-3.86
61595;BMP280;47397;48.194;11.632;2023-02-11T02:57:29;97755.09;;;-3.82
61595;BMP280;47397;48.194;11.632;2023-02-11T02:58:56;97755.03;;;-3.97
61595;BMP280;47397;48.194;11.632;2023-02-11T03:00:15;97751.41;;;-4.02
61595;BMP280;47397;48.194;11.632;2023-02-11T03:01:26;97753.59;;;-3.93
61595;BMP280;47397;48.194;11.632;2023-02-11T03:02:30;97755.59;;;-4.01
61595;BMP280;47397;48.194;11.632;2023-02-11T03:03:37;97751.59;;;-3.99
61595;BMP280;47397;48.194;11.632;2023-02-11T03:04:48;97752.94;;;-4.04
61595;BMP280;47397;48.194;11.632;2023-02-11T03:05:54;97750.06;;;-3.97
61595;BMP280;47397;48.194;11.632;2023-02-11T03:07:02;97742.03;;;-4.06
61595;BMP280;47397;48.194;11.632;2023-02-11T03:08:07;97747.00;;;-3.93
61595;BMP280;47397;48.194;11.632;2023-02-11T03:09:13;97739.53;;;-3.93
61595;BMP280;47397;48.194;11.632;2023-02-11T03:10:18;97740.13;;;-3.97
61595;BMP280;47397;48.194;11.632;2023-02-11T03:11:20;97737.16;;;-3.91
61595;BMP280;47397;48.194;11.632;2023-02-11T03:12:22;97731.50;;;-3.89
61595;BMP280;47397;48.194;11.632;2023-02-11T03:13:30;97736.88;;;-3.96
61595;BMP280;47397;48.194;11.632;2023-02-11T03:14:32;97729.63;;;-4.06
61595;BMP280;47397;48.194;11.632;2023-02-11T03:15:39;97733.91;;;-3.90
61595;BMP280;47397;48.194;11.632;2023-02-11T03:16:42;97727.31;;;-3.90
61595;BMP280;47397;48.194;11.632;2023-02-11T03:17:46;97727.94;;;-3.79
61595;BMP280;47397;48.194;11.632;2023-02-11T03:18:49;97730.44;;;-3.79
61595;BMP280;47397;48.194;11.632;2023-02-11T03:19:53;97728.44;;;-3.85
61595;BMP280;47397;48.194;11.632;2023-02-11T03:20:55;97726.13;;;-3.82
61595;BMP280;47397;48.194;11.632;2023-02-11T03:21:56;97730.53;;;-3.78
61595;BMP280;47397;48.194;11.632;2023-02-11T03:23:01;97723.28;;;-3.88
61595;BMP280;47397;48.194;11.632;2023-02-11T03:24:06;97723.97;;;-3.90
61595;BMP280;47397;48.194;11.632;2023-02-11T03:25:08;97723.75;;;-3.80
61595;BMP280;47397;48.194;11.632;2023-02-11T03:26:15;97726.91;;;-3.83
61595;BMP280;47397;48.194;11.632;2023-02-11T03:27:19;97728.44;;;-3.85
61595;BMP280;47397;48.194;11.632;2023-02-11T03:28:29;97726.03;;;-3.83
61595;BMP280;47397;48.194;11.632;2023-02-11T03:29:35;97725.19;;;-3.84
61595;BMP280;47397;48.194;11.632;2023-02-11T03:30:40;97726.13;;;-3.82
61595;BMP280;47397;48.194;11.632;2023-02-11T03:31:47;97731.66;;;-3.72
61595;BMP280;47397;48.194;11.632;2023-02-11T03:32:52;97726.31;;;-3.79
61595;BMP280;47397;48.194;11.632;2023-02-11T03:33:58;97725.66;;;-3.76
61595;BMP280;47397;48.194;11.632;2023-02-11T03:35:06;97731.56;;;-3.74
61595;BMP280;47397;48.194;11.632;2023-02-11T03:36:11;97732.34;;;-3.75
61595;BMP280;47397;48.194;11.632;2023-02-11T03:37:17;97743.63;;;-3.67
61595;BMP280;47397;48.194;11.632;2023-02-11T03:38:21;97735.22;;;-3.69
61595;BMP280;47397;48.194;11.632;2023-02-11T03:39:24;97740.75;;;-3.73
61595;BMP280;47397;48.194;11.632;2023-02-11T03:40:30;97730.19;;;-3.97
61595;BMP280;47397;48.194;11.632;2023-02-11T03:41:32;97735.44;;;-4.05
61595;BMP280;47397;48.194;11.632;2023-02-11T03:42:36;97730.75;;;-3.88
61595;BMP280;47397;48.194;11.632;2023-02-11T03:43:41;97732.34;;;-3.75
61595;BMP280;47397;48.194;11.632;2023-02-11T03:44:47;97737.50;;;-3.72
61595;BMP280;47397;48.194;11.632;2023-02-11T03:45:51;97735.97;;;-3.70
61595;BMP280;47397;48.194;11.632;2023-02-11T03:46:53;97737.41;;;-3.73
61595;BMP280;47397;48.194;11.632;2023-02-11T03:47:58;97737.41;;;-3.73
61595;BMP280;47397;48.194;11.632;2023-02-11T03:49:01;97730.34;;;-3.81
61595;BMP280;47397;48.194;11.632;2023-02-11T03:50:07;97733.00;;;-3.78
61595;BMP280;47397;48.194;11.632;2023-02-11T03:51:10;97734.72;;;-3.77
61595;BMP280;47397;48.194;11.632;2023-02-11T03:52:12;97739.03;;;-3.74
61595;BMP280;47397;48.194;11.632;2023-02-11T03:53:13;97739.78;;;-3.75
61595;BMP280;47397;48.194;11.632;2023-02-11T03:54:18;97735.91;;;-3.71
61595;BMP280;47397;48.194;11.632;2023-02-11T03:55:22;97743.34;;;-3.71
61595;BMP280;47397;48.194;11.632;2023-02-11T03:56:25;97735.69;;;-3.74
61595;BMP280;47397;48.194;11.632;2023-02-11T03:57:26;97737.50;;;-3.72
61595;BMP280;47397;48.194;11.632;2023-02-11T03:58:27;97737.78;;;-3.81
61595;BMP280;47397;48.194;11.632;2023-02-11T03:59:28;97735.22;;;-3.82
61595;BMP280;47397;48.194;11.632;2023-02-11T04:00:29;97732.66;;;-3.70
61595;BMP280;47397;48.194;11.632;2023-02-11T04:01:30;97740.28;;;-3.67
61595;BMP280;47397;48.194;11.632;2023-02-11T04:02:33;97737.63;;;-3.70
61595;BMP280;47397;48.194;11.632;2023-02-11T04:03:34;97739.44;;;-3.81
61595;BMP280;47397;48.194;11.632;2023-02-11T04:04:35;97740.38;;;-3.79
61595;BMP280;47397;48.194;11.632;2023-02-11T04:05:37;97741.41;;;-3.75
61595;BMP280;47397;48.194;11.632;2023-02-11T04:06:38;97742.00;;;-3.66
61595;BMP280;47397;48.194;11.632;2023-02-11T04:07:38;97743.34;;;-3.71
61595;BMP280;47397;48.194;11.632;2023-02-11T04:08:39;97745.06;;;-3.70
61595;BMP280;47397;48.194;11.632;2023-02-11T04:09:39;97744.38;;;-3.81
61595;BMP280;47397;48.194;11.632;2023-02-11T04:10:39;97744.47;;;-3.80
61595;BMP280;47397;48.194;11.632;2023-02-11T04:11:40;97742.66;;;-3.82
61595;BMP280;47397;48.194;11.632;2023-02-11T04:12:40;97742.09;;;-3.78
61595;BMP280;47397;48.194;11.632;2023-02-11T04:13:41;97750.81;;;-3.71
61595;BMP280;47397;48.194;11.632;2023-02-11T04:14:41;97742.28;;;-3.75
61595;BMP280;47397;48.194;11.632;2023-02-11T04:15:42;97749.63;;;-3.77
61595;BMP280;47397;48.194;11.632;2023-02-11T04:16:42;97751.44;;;-3.74
61595;BMP280;47397;48.194;11.632;2023-02-11T04:17:42;97759.47;;;-3.78
61595;BMP280;47397;48.194;11.632;2023-02-11T04:18:43;97756.50;;;-3.72
61595;BMP280;47397;48.194;11.632;2023-02-11T04:19:43;97757.28;;;-3.73
61595;BMP280;47397;48.194;11.632;2023-02-11T04:20:45;97759.22;;;-3.69
61595;BMP280;47397;48.194;11.632;2023-02-11T04:21:46;97758.25;;;-3.71
61595;BMP280;47397;48.194;11.632;2023-02-11T04:22:46;97768.84;;;-3.74
61595;BMP280;47397;48.194;11.632;2023-02-11T04:23:47;97759.47;;;-3.78
61595;BMP280;47397;48.194;11.632;2023-02-11T04:24:47;97763.41;;;-3.82
61595;BMP280;47397;48.194;11.632;2023-02-11T04:25:50;97756.31;;;-3.75
61595;BMP280;47397;48.194;11.632;2023-02-11T04:26:50;97752.41;;;-3.72
61595;BMP280;47397;48.194;11.632;2023-02-11T04:27:51;97754.06;;;-3.86
61595;BMP280;47397;48.194;11.632;2023-02-11T04:28:51;97755.97;;;-3.82
61595;BMP280;47397;48.194;11.632;2023-02-11T04:29:51;97757.59;;;-3.82
61595;BMP280;47397;48.194;11.632;2023-02-11T04:30:52;97761.28;;;-3.75
61595;BMP280;47397;48.194;11.632;2023-02-11T04:31:53;97762.72;;;-3.79
61595;BMP280;47397;48.194;11.632;2023-02-11T04:32:53;97760.06;;;-3.82
61595;BMP280;47397;48.194;11.632;2023-02-11T04:33:54;97757.31;;;-3.87
61595;BMP280;47397;48.194;11.632;2023-02-11T04:34:55;97754.41;;;-3.80
61595;BMP280;47397;48.194;11.632;2023-02-11T04:35:57;97762.06;;;-3.77
61595;BMP280;47397;48.194;11.632;2023-02-11T04:36:57;97762.66;;;-3.67
61595;BMP280;47397;48.194;11.632;2023-02-11T04:37:57;97767.63;;;-3.67
61595;BMP280;47397;48.194;11.632;2023-02-11T04:38:58;97770.47;;;-3.61
61595;BMP280;47397;48.194;11.632;2023-02-11T04:39:59;97783.75;;;-3.74
61595;BMP280;47397;48.194;11.632;2023-02-11T04:40:59;97782.78;;;-3.76
61595;BMP280;47397;48.194;11.632;2023-02-11T04:42:00;97780.63;;;-3.71
61595;BMP280;47397;48.194;11.632;2023-02-11T04:43:00;97774.31;;;-3.66
61595;BMP280;47397;48.194;11.632;2023-02-11T04:44:01;97770.47;;;-3.61
61595;BMP280;47397;48.194;11.632;2023-02-11T04:45:01;97788.91;;;-3.58
61595;BMP280;47397;48.194;11.632;2023-02-11T04:46:02;97785.94;;;-3.52
61595;BMP280;47397;48.194;11.632;2023-02-11T04:47:02;97784.13;;;-3.55
61595;BMP280;47397;48.194;11.632;2023-02-11T04:48:03;97783.16;;;-3.57
61595;BMP280;47397;48.194;11.632;2023-02-11T04:49:03;97788.81;;;-3.59
61595;BMP280;47397;48.194;11.632;2023-02-11T04:50:04;97790.63;;;-3.57
61595;BMP280;47397;48.194;11.632;2023-02-11T04:51:06;97783.16;;;-3.57
61595;BMP280;47397;48.194;11.632;2023-02-11T04:52:07;97794.06;;;-3.55
61595;BMP280;47397;48.194;11.632;2023-02-11T04:53:07;97799.81;;;-3.56
61595;BMP280;47397;48.194;11.632;2023-02-11T04:54:08;97797.22;;;-3.57
61595;BMP280;47397;48.194;11.632;2023-02-11T04:55:08;97795.81;;;-3.67
61595;BMP280;47397;48.194;11.632;2023-02-11T04:56:09;97796.84;;;-3.63
61595;BMP280;47397;48.194;11.632;2023-02-11T04:57:09;97788.16;;;-3.70
61595;BMP280;47397;48.194;11.632;2023-02-11T04:58:10;97802.31;;;-3.69
61595;BMP280;47397;48.194;11.632;2023-02-11T04:59:10;97802.31;;;-3.69
61595;BMP280;47397;48.194;11.632;2023-02-11T05:00:12;97792.47;;;-3.67
61595;BMP280;47397;48.194;11.632;2023-02-11T05:01:14;97785.69;;;-3.70
61595;BMP280;47397;48.194;11.632;2023-02-11T05:02:15;97793.22;;;-3.82
61595;BMP280;47397;48.194;11.632;2023-02-11T05:03:15;97784.25;;;-3.93
61595;BMP280;47397;48.194;11.632;2023-02-11T05:04:16;97782.16;;;-3.87
61595;BMP280;47397;48.194;11.632;2023-02-11T05:05:17;97784.41;;;-3.77
61595;BMP280;47397;48.194;11.632;2023-02-11T05:06:18;97787.31;;;-3.70
61595;BMP280;47397;48.194;11.632;2023-02-11T05:07:19;97774.41;;;-3.65
61595;BMP280;47397;48.194;11.632;2023-02-11T05:08:19;97782.13;;;-3.73
61595;BMP280;47397;48.194;11.632;2023-02-11T05:09:20;97782.22;;;-3.72
61595;BMP280;47397;48.194;11.632;2023-02-11T05:10:20;97785.00;;;-3.67
61595;BMP280;47397;48.194;11.632;2023-02-11T05:11:23;97787.09;;;-3.60
61595;BMP280;47397;48.194;11.632;2023-02-11T05:12:23;97783.66;;;-3.62
61595;BMP280;47397;48.194;11.632;2023-02-11T05:13:24;97781.84;;;-3.65
61595;BMP280;47397;48.194;11.632;2023-02-11T05:14:24;97781.56;;;-3.69
61595;BMP280;47397;48.194;11.632;2023-02-11T05:15:25;97779.19;;;-3.68
61595;BMP280;47397;48.194;11.632;2023-02-11T05:16:25;97781.00;;;-3.79
61595;BMP280;47397;48.194;11.632;2023-02-11T05:17:26;97784.34;;;-3.65
61595;BMP280;47397;48.194;11.632;2023-02-11T05:18:26;97779.91;;;-3.56
61595;BMP280;47397;48.194;11.632;2023-02-11T05:19:27;97777.31;;;-3.44
61595;BMP280;47397;48.194;11.632;2023-02-11T05:20:27;97771.38;;;-3.46
61595;BMP280;47397;48.194;11.632;2023-02-11T05:21:29;97769.31;;;-3.53
61595;BMP280;47397;48.194;11.632;2023-02-11T05:22:29;97773.69;;;-3.49
61595;BMP280;47397;48.194;11.632;2023-02-11T05:23:30;97770.88;;;-3.40
61595;BMP280;47397;48.194;11.632;2023-02-11T05:24:31;97769.84;;;-3.44
61595;BMP280;47397;48.194;11.632;2023-02-11T05:25:31;97769.56;;;-3.49
61595;BMP280;47397;48.194;11.632;2023-02-11T05:26:32;97767.94;;;-3.48
61595;BMP280;47397;48.194;11.632;2023-02-11T05:27:32;97768.66;;;-3.36
61595;BMP280;47397;48.194;11.632;2023-02-11T05:28:33;97760.94;;;-3.27
61595;BMP280;47397;48.194;11.632;2023-02-11T05:29:33;97761.19;;;-3.23
61595;BMP280;47397;48.194;11.632;2023-02-11T05:30:34;97763.91;;;-3.33
61595;BMP280;47397;48.194;11.632;2023-02-11T05:31:34;97761.59;;;-3.30
61595;BMP280;47397;48.194;11.632;2023-02-11T05:32:35;97758.13;;;-3.19
61595;BMP280;47397;48.194;11.632;2023-02-11T05:33:35;97766.69;;;-3.13
61595;BMP280;47397;48.194;11.632;2023-02-11T05:34:36;97764.31;;;-3.12
61595;BMP280;47397;48.194;11.632;2023-02-11T05:35:36;97761.91;;;-3.10
61595;BMP280;47397;48.194;11.632;2023-02-11T05:36:38;97756.84;;;-3.12
61595;BMP280;47397;48.194;11.632;2023-02-11T05:37:38;97755.47;;;-3.07
61595;BMP280;47397;48.194;11.632;2023-02-11T05:38:39;97752.31;;;-3.04
61595;BMP280;47397;48.194;11.632;2023-02-11T05:39:39;97746.81;;;-2.99
61595;BMP280;47397;48.194;11.632;2023-02-11T05:40:40;97749.44;;;-2.97
61595;BMP280;47397;48.194;11.632;2023-02-11T05:41:40;97741.59;;;-3.03
61595;BMP280;47397;48.194;11.632;2023-02-11T05:42:41;97747.88;;;-2.95
61595;BMP280;47397;48.194;11.632;2023-02-11T05:43:41;97744.81;;;-2.91
61595;BMP280;47397;48.194;11.632;2023-02-11T05:44:42;97747.88;;;-2.95
61595;BMP280;47397;48.194;11.632;2023-02-11T05:45:42;97751.50;;;-2.90
61595;BMP280;47397;48.194;11.632;2023-02-11T05:46:42;97742.16;;;-2.94
61595;BMP280;47397;48.194;11.632;2023-02-11T05:47:43;97745.19;;;-2.98
61595;BMP280;47397;48.194;11.632;2023-02-11T05:48:43;97734.69;;;-2.94
61595;BMP280;47397;48.194;11.632;2023-02-11T05:49:44;97731.25;;;-2.81
61595;BMP280;47397;48.194;11.632;2023-02-11T05:50:44;97738.03;;;-2.79
61595;BMP280;47397;48.194;11.632;2023-02-11T05:51:46;97734.69;;;-2.79
61595;BMP280;47397;48.194;11.632;2023-02-11T05:52:47;97742.50;;;-2.73
61595;BMP280;47397;48.194;11.632;2023-02-11T05:53:47;97738.13;;;-2.77
61595;BMP280;47397;48.194;11.632;2023-02-11T05:54:48;97737.78;;;-2.69
61595;BMP280;47397;48.194;11.632;2023-02-11T05:55:49;97741.03;;;-2.70
61595;BMP280;47397;48.194;11.632;2023-02-11T05:56:49;97734.00;;;-2.77
61595;BMP280;47397;48.194;11.632;2023-02-11T05:57:50;97733.81;;;-2.80
61595;BMP280;47397;48.194;11.632;2023-02-11T05:58:50;97737.00;;;-2.83